createdAt,value
2023-09-30T00:00:46.645Z,2.88
2023-09-30T00:03:15.216Z,3.53
2023-09-30T00:05:45.080Z,3.50
2023-09-30T00:08:13.532Z,3.60
2023-09-30T00:10:42.131Z,3.22
2023-09-30T00:13:10.838Z,3.50
2023-09-30T00:15:39.359Z,2.97
2023-09-30T00:18:08.018Z,3.40
2023-09-30T00:20:36.690Z,3.50
2023-09-30T00:23:07.580Z,3.50
2023-09-30T00:25:36.018Z,3.72
2023-09-30T00:28:04.872Z,3.45
2023-09-30T00:30:33.489Z,4.03
2023-09-30T00:33:02.372Z,3.63
2023-09-30T00:35:33.685Z,3.53
2023-09-30T00:38:02.174Z,3.25
2023-09-30T00:40:32.038Z,3.45
2023-09-30T00:43:00.856Z,3.53
2023-09-30T00:45:30.722Z,3.65
2023-09-30T00:47:59.444Z,3.72
2023-09-30T00:50:29.650Z,3.20
2023-09-30T00:52:58.755Z,3.67
2023-09-30T00:55:27.238Z,3.60
2023-09-30T00:57:57.234Z,3.22
2023-09-30T01:00:29.618Z,3.58
2023-09-30T01:03:00.744Z,3.38
2023-09-30T01:05:29.491Z,3.30
2023-09-30T01:07:58.052Z,3.40
2023-09-30T01:10:26.751Z,3.28
2023-09-30T01:12:56.607Z,3.67
2023-09-30T01:15:26.364Z,3.10
2023-09-30T01:17:54.852Z,3.55
2023-09-30T01:20:24.560Z,3.53
2023-09-30T01:22:56.136Z,4.28
2023-09-30T01:25:24.789Z,4.00
2023-09-30T01:27:53.302Z,3.80
2023-09-30T01:30:23.751Z,3.80
2023-09-30T01:32:52.250Z,3.47
2023-09-30T01:35:21.049Z,3.85
2023-09-30T01:37:48.559Z,4.05
2023-09-30T01:40:19.327Z,4.00
2023-09-30T01:42:48.134Z,4.03
2023-09-30T01:45:16.875Z,4.00
2023-09-30T01:47:45.393Z,4.03
2023-09-30T01:50:20.249Z,3.58
2023-09-30T01:52:48.801Z,3.75
2023-09-30T01:55:18.828Z,3.92
2023-09-30T01:57:47.321Z,3.40
2023-09-30T02:00:15.942Z,4.00
2023-09-30T02:02:45.300Z,3.55
2023-09-30T02:05:14.314Z,4.28
2023-09-30T02:07:43.356Z,4.05
2023-09-30T02:10:12.741Z,3.78
2023-09-30T02:12:42.632Z,3.67
2023-09-30T02:15:12.629Z,4.15
2023-09-30T02:17:41.320Z,4.00
2023-09-30T02:20:14.228Z,4.18
2023-09-30T02:22:43.419Z,3.67
2023-09-30T02:25:13.424Z,4.05
2023-09-30T02:27:44.494Z,4.40
2023-09-30T02:30:15.118Z,3.88
2023-09-30T02:32:44.314Z,3.75
2023-09-30T02:35:12.898Z,4.10
2023-09-30T02:37:41.459Z,4.47
2023-09-30T02:40:11.742Z,3.75
2023-09-30T02:42:41.205Z,3.78
2023-09-30T02:45:12.774Z,3.90
2023-09-30T02:47:41.739Z,4.25
2023-09-30T02:50:13.078Z,3.72
2023-09-30T02:52:42.817Z,4.13
2023-09-30T02:55:12.417Z,4.03
2023-09-30T02:57:41.440Z,3.80
2023-09-30T03:00:24.430Z,4.18
2023-09-30T03:02:54.385Z,4.30
2023-09-30T03:05:24.227Z,4.38
2023-09-30T03:07:52.901Z,3.80
2023-09-30T03:10:24.754Z,4.00
2023-09-30T03:12:53.771Z,4.35
2023-09-30T03:15:24.799Z,3.35
2023-09-30T03:17:54.292Z,4.35
2023-09-30T03:20:22.968Z,3.65
2023-09-30T03:22:51.566Z,3.53
2023-09-30T03:25:21.916Z,3.50
2023-09-30T03:27:51.688Z,3.90
2023-09-30T03:30:22.072Z,4.10
2023-09-30T03:32:52.045Z,4.40
2023-09-30T03:35:20.611Z,3.75
2023-09-30T03:37:49.812Z,4.35
2023-09-30T03:40:21.391Z,4.47
2023-09-30T03:42:51.476Z,4.50
2023-09-30T03:45:20.637Z,4.60
2023-09-30T03:47:52.131Z,4.32
2023-09-30T03:50:20.779Z,3.85
2023-09-30T03:52:50.675Z,4.45
2023-09-30T03:55:22.164Z,4.15
2023-09-30T03:57:52.192Z,4.60
2023-09-30T04:00:22.924Z,5.35
2023-09-30T04:02:55.970Z,4.28
2023-09-30T04:05:27.722Z,4.40
2023-09-30T04:07:56.221Z,4.22
2023-09-30T04:10:25.073Z,4.18
2023-09-30T04:12:54.148Z,3.67
2023-09-30T04:15:22.870Z,3.55
2023-09-30T04:17:53.774Z,3.47
2023-09-30T04:20:24.669Z,4.10
2023-09-30T04:22:58.285Z,3.67
2023-09-30T04:25:27.422Z,3.97
2023-09-30T04:27:56.085Z,3.70
2023-09-30T04:30:24.602Z,3.88
2023-09-30T04:32:55.423Z,3.90
2023-09-30T04:35:24.102Z,3.67
2023-09-30T04:37:52.647Z,3.38
2023-09-30T04:40:21.800Z,3.30
2023-09-30T04:42:50.952Z,3.10
2023-09-30T04:45:21.430Z,3.60
2023-09-30T04:47:51.253Z,4.00
2023-09-30T04:50:23.024Z,3.42
2023-09-30T04:52:52.917Z,3.60
2023-09-30T04:55:21.759Z,3.42
2023-09-30T04:57:53.052Z,3.17
2023-09-30T05:00:26.583Z,3.47
2023-09-30T05:02:57.094Z,3.55
2023-09-30T05:05:27.238Z,3.50
2023-09-30T05:07:56.069Z,3.67
2023-09-30T05:10:25.282Z,3.40
2023-09-30T05:12:55.207Z,3.17
2023-09-30T05:15:24.354Z,3.08
2023-09-30T05:17:53.128Z,3.25
2023-09-30T05:20:21.894Z,2.78
2023-09-30T05:22:51.868Z,3.42
2023-09-30T05:25:21.009Z,3.63
2023-09-30T05:27:50.028Z,3.38
2023-09-30T05:30:20.375Z,3.40
2023-09-30T05:32:49.193Z,3.00
2023-09-30T05:35:18.775Z,3.17
2023-09-30T05:37:47.853Z,3.20
2023-09-30T05:40:23.658Z,3.00
2023-09-30T05:42:54.298Z,2.97
2023-09-30T05:45:25.523Z,3.00
2023-09-30T05:47:55.080Z,2.83
2023-09-30T05:50:27.069Z,3.13
2023-09-30T05:52:56.824Z,3.35
2023-09-30T05:55:28.027Z,3.10
2023-09-30T05:57:57.129Z,2.70
2023-09-30T06:00:29.718Z,2.97
2023-09-30T06:02:58.945Z,3.33
2023-09-30T06:05:30.922Z,3.10
2023-09-30T06:07:59.933Z,3.30
2023-09-30T06:10:30.137Z,3.72
2023-09-30T06:12:59.710Z,3.83
2023-09-30T06:15:28.463Z,4.05
2023-09-30T06:17:58.005Z,3.67
2023-09-30T06:20:28.989Z,3.92
2023-09-30T06:22:58.116Z,3.45
2023-09-30T06:25:26.913Z,3.75
2023-09-30T06:27:57.182Z,3.63
2023-09-30T06:30:31.178Z,3.67
2023-09-30T06:33:01.918Z,3.50
2023-09-30T06:35:35.537Z,3.65
2023-09-30T06:38:04.385Z,3.88
2023-09-30T06:40:33.108Z,4.30
2023-09-30T06:43:02.916Z,4.03
2023-09-30T06:45:31.427Z,4.18
2023-09-30T06:47:59.949Z,4.30
2023-09-30T06:50:28.473Z,3.83
2023-09-30T06:52:57.045Z,4.22
2023-09-30T06:55:26.222Z,4.22
2023-09-30T06:57:54.788Z,3.80
2023-09-30T07:00:26.536Z,4.13
2023-09-30T07:02:55.411Z,3.83
2023-09-30T07:05:23.925Z,4.38
2023-09-30T07:07:53.127Z,4.43
2023-09-30T07:10:21.634Z,3.97
2023-09-30T07:12:50.318Z,4.78
2023-09-30T07:15:19.041Z,4.38
2023-09-30T07:17:49.381Z,3.80
2023-09-30T07:20:18.864Z,4.68
2023-09-30T07:22:59.024Z,4.05
2023-09-30T07:25:32.725Z,4.68
2023-09-30T07:28:02.003Z,4.68
2023-09-30T07:30:30.731Z,4.20
2023-09-30T07:33:00.620Z,4.63
2023-09-30T07:35:29.102Z,5.05
2023-09-30T07:37:58.869Z,3.90
2023-09-30T07:40:28.761Z,4.65
2023-09-30T07:42:58.262Z,3.83
2023-09-30T07:45:26.759Z,4.63
2023-09-30T07:47:55.589Z,4.85
2023-09-30T07:50:25.672Z,4.60
2023-09-30T07:52:54.130Z,4.40
2023-09-30T07:55:22.741Z,4.28
2023-09-30T07:57:51.185Z,4.80
2023-09-30T08:00:22.432Z,4.43
2023-09-30T08:02:51.270Z,4.80
2023-09-30T08:05:19.963Z,4.95
2023-09-30T08:07:49.848Z,4.40
2023-09-30T08:10:18.401Z,4.22
2023-09-30T08:12:49.914Z,4.65
2023-09-30T08:15:18.709Z,4.97
2023-09-30T08:17:47.789Z,4.15
2023-09-30T08:20:16.402Z,4.10
2023-09-30T08:22:46.228Z,4.65
2023-09-30T08:25:16.031Z,4.38
2023-09-30T08:27:46.607Z,4.38
2023-09-30T08:30:15.218Z,4.70
2023-09-30T08:32:44.061Z,3.78
2023-09-30T08:35:13.927Z,4.53
2023-09-30T08:37:42.446Z,4.47
2023-09-30T08:40:11.776Z,4.28
2023-09-30T08:42:42.594Z,4.00
2023-09-30T08:45:16.527Z,4.40
2023-09-30T08:47:45.422Z,3.60
2023-09-30T08:50:15.392Z,4.28
2023-09-30T08:52:45.562Z,4.00
2023-09-30T08:55:14.454Z,3.92
2023-09-30T08:57:44.985Z,3.90
2023-09-30T09:00:15.626Z,3.75
2023-09-30T09:02:44.870Z,4.63
2023-09-30T09:05:13.685Z,5.30
2023-09-30T09:07:43.917Z,4.40
2023-09-30T09:10:15.260Z,4.47
2023-09-30T09:12:56.340Z,5.07
2023-09-30T09:15:27.152Z,5.65
2023-09-30T09:17:56.046Z,5.50
2023-09-30T09:20:27.180Z,4.45
2023-09-30T09:22:57.217Z,5.35
2023-09-30T09:25:26.611Z,5.53
2023-09-30T09:27:56.554Z,4.95
2023-09-30T09:30:26.760Z,5.35
2023-09-30T09:33:06.525Z,5.13
2023-09-30T09:35:36.376Z,4.72
2023-09-30T09:38:06.104Z,4.80
2023-09-30T09:40:35.784Z,4.35
2023-09-30T09:43:07.233Z,3.78
2023-09-30T09:45:37.805Z,3.90
2023-09-30T09:48:08.055Z,4.28
2023-09-30T09:50:39.601Z,3.92
2023-09-30T09:53:09.574Z,3.90
2023-09-30T09:55:39.852Z,3.40
2023-09-30T09:58:11.309Z,3.00
2023-09-30T10:00:40.904Z,3.10
2023-09-30T10:03:09.813Z,3.10
2023-09-30T10:05:41.306Z,3.45
2023-09-30T10:08:14.875Z,3.45
2023-09-30T10:10:44.303Z,2.80
2023-09-30T10:13:50.499Z,3.28
2023-09-30T10:16:52.430Z,3.60
2023-09-30T10:19:24.416Z,3.55
2023-09-30T10:22:24.897Z,2.83
2023-09-30T10:24:55.050Z,3.00
2023-09-30T10:27:38.416Z,2.95
2023-09-30T10:30:14.498Z,2.97
2023-09-30T10:33:16.724Z,2.67
2023-09-30T10:35:50.748Z,2.72
2023-09-30T10:38:42.594Z,2.95
2023-09-30T10:41:13.357Z,2.40
2023-09-30T10:43:43.508Z,3.25
2023-09-30T10:46:36.017Z,2.92
2023-09-30T10:49:34.556Z,2.88
2023-09-30T10:52:03.554Z,2.80
2023-09-30T10:54:33.867Z,2.97
2023-09-30T10:57:04.496Z,3.25
2023-09-30T10:59:36.181Z,3.15
2023-09-30T11:02:19.890Z,3.33
2023-09-30T11:04:49.212Z,3.13
2023-09-30T11:07:25.370Z,2.92
2023-09-30T11:09:56.369Z,2.83
2023-09-30T11:12:24.991Z,3.70
2023-09-30T11:15:01.477Z,2.95
2023-09-30T11:17:31.453Z,2.58
2023-09-30T11:20:00.683Z,2.63
2023-09-30T11:22:29.356Z,3.20
2023-09-30T11:24:57.962Z,2.83
2023-09-30T11:27:27.751Z,3.00
2023-09-30T11:29:57.210Z,2.50
2023-09-30T11:32:28.667Z,2.63
2023-09-30T11:34:58.728Z,2.45
2023-09-30T11:37:34.769Z,3.03
2023-09-30T11:40:14.949Z,2.95
2023-09-30T11:42:44.105Z,2.22
2023-09-30T11:45:23.926Z,2.53
2023-09-30T11:47:53.222Z,2.03
2023-09-30T11:50:25.662Z,2.35
2023-09-30T11:52:54.262Z,2.25
2023-09-30T11:55:23.051Z,2.70
2023-09-30T11:57:55.588Z,2.20
2023-09-30T12:00:25.257Z,2.08
2023-09-30T12:02:54.807Z,2.10
2023-09-30T12:05:24.675Z,1.80
2023-09-30T12:07:53.240Z,2.38
2023-09-30T12:10:21.713Z,2.15
2023-09-30T12:12:50.241Z,2.10
2023-09-30T12:15:23.204Z,2.22
2023-09-30T12:17:51.874Z,2.15
2023-09-30T12:20:20.417Z,2.15
2023-09-30T12:22:50.259Z,2.20
2023-09-30T12:25:22.517Z,2.22
2023-09-30T12:27:51.903Z,2.40
2023-09-30T12:30:21.270Z,1.88
2023-09-30T12:32:49.819Z,1.75
2023-09-30T12:35:18.307Z,1.95
2023-09-30T12:37:46.829Z,2.15
2023-09-30T12:40:17.952Z,2.75
2023-09-30T12:42:46.787Z,2.33
2023-09-30T12:45:15.472Z,2.75
2023-09-30T12:47:43.967Z,1.85
2023-09-30T12:50:13.129Z,2.30
2023-09-30T12:52:41.917Z,1.90
2023-09-30T12:55:11.309Z,2.25
2023-09-30T12:57:41.507Z,2.28
2023-09-30T13:00:11.369Z,1.98
2023-09-30T13:02:40.343Z,2.15
2023-09-30T13:05:09.081Z,1.88
2023-09-30T13:07:37.701Z,2.42
2023-09-30T13:10:08.972Z,2.47
2023-09-30T13:12:37.856Z,2.50
2023-09-30T13:15:09.882Z,1.85
2023-09-30T13:17:38.496Z,1.90
2023-09-30T13:20:10.013Z,2.20
2023-09-30T13:22:39.960Z,2.13
2023-09-30T13:25:13.141Z,2.10
2023-09-30T13:27:41.934Z,2.40
2023-09-30T13:30:12.373Z,2.17
2023-09-30T13:32:40.961Z,2.42
2023-09-30T13:35:10.115Z,2.08
2023-09-30T13:37:38.702Z,2.17
2023-09-30T13:40:09.996Z,2.10
2023-09-30T13:42:38.740Z,2.05
2023-09-30T13:45:09.381Z,2.58
2023-09-30T13:47:39.325Z,2.60
2023-09-30T13:50:10.702Z,2.13
2023-09-30T13:52:39.522Z,1.88
2023-09-30T13:55:10.029Z,1.98
2023-09-30T13:57:38.589Z,2.03
2023-09-30T14:00:11.680Z,2.20
2023-09-30T14:02:41.747Z,1.88
2023-09-30T14:05:10.921Z,2.08
2023-09-30T14:07:41.163Z,2.35
2023-09-30T14:10:12.007Z,1.98
2023-09-30T14:12:41.267Z,2.10
2023-09-30T14:15:11.055Z,2.35
2023-09-30T14:17:41.137Z,2.22
2023-09-30T14:20:10.935Z,2.33
2023-09-30T14:22:39.412Z,1.92
2023-09-30T14:25:08.635Z,2.40
2023-09-30T14:27:37.328Z,2.25
2023-09-30T14:30:08.844Z,2.17
2023-09-30T14:32:38.550Z,2.10
2023-09-30T14:35:10.291Z,2.30
2023-09-30T14:37:38.841Z,2.80
2023-09-30T14:40:11.616Z,2.55
2023-09-30T14:42:40.598Z,2.25
2023-09-30T14:45:11.860Z,2.22
2023-09-30T14:47:40.354Z,2.38
2023-09-30T14:50:12.571Z,2.33
2023-09-30T14:52:41.102Z,2.22
2023-09-30T14:55:10.324Z,2.45
2023-09-30T14:57:38.801Z,1.90
2023-09-30T15:00:08.569Z,2.08
2023-09-30T15:02:39.116Z,2.42
2023-09-30T15:05:10.314Z,2.10
2023-09-30T15:07:39.408Z,1.95
2023-09-30T15:10:09.539Z,2.40
2023-09-30T15:12:38.101Z,2.10
2023-09-30T15:15:07.628Z,2.10
2023-09-30T15:17:36.136Z,2.20
2023-09-30T15:20:05.086Z,2.72
2023-09-30T15:22:35.378Z,2.47
2023-09-30T15:25:05.331Z,2.53
2023-09-30T15:27:33.977Z,2.40
2023-09-30T15:30:02.837Z,2.30
2023-09-30T15:32:31.978Z,2.58
2023-09-30T15:35:01.655Z,2.15
2023-09-30T15:37:30.346Z,2.28
2023-09-30T15:40:00.243Z,2.70
2023-09-30T15:42:29.036Z,2.55
2023-09-30T15:44:59.096Z,2.70
2023-09-30T15:47:27.617Z,2.75
2023-09-30T15:49:56.070Z,2.03
2023-09-30T15:52:24.527Z,2.60
2023-09-30T15:54:53.662Z,2.63
2023-09-30T15:57:23.608Z,2.63
2023-09-30T15:59:52.082Z,3.00
2023-09-30T16:02:20.583Z,2.75
2023-09-30T16:04:49.193Z,2.20
2023-09-30T16:07:17.695Z,2.60
2023-09-30T16:09:46.184Z,2.50
2023-09-30T16:12:14.660Z,2.60
2023-09-30T16:14:44.508Z,2.92
2023-09-30T16:17:13.154Z,3.03
2023-09-30T16:19:41.917Z,2.70
2023-09-30T16:22:10.457Z,2.40
2023-09-30T16:24:39.406Z,2.40
2023-09-30T16:27:07.944Z,2.70
2023-09-30T16:29:36.600Z,3.00
2023-09-30T16:32:06.574Z,2.95
2023-09-30T16:34:35.100Z,2.83
2023-09-30T16:37:04.879Z,2.72
2023-09-30T16:39:33.390Z,2.67
2023-09-30T16:42:01.988Z,3.17
2023-09-30T16:44:30.402Z,2.42
2023-09-30T16:46:58.958Z,2.95
2023-09-30T16:49:28.780Z,2.58
2023-09-30T16:51:57.390Z,2.55
2023-09-30T16:54:25.940Z,2.80
2023-09-30T16:56:56.709Z,2.40
2023-09-30T16:59:25.376Z,3.35
2023-09-30T17:01:53.918Z,2.60
2023-09-30T17:04:22.671Z,3.20
2023-09-30T17:06:52.675Z,2.95
2023-09-30T17:09:21.268Z,2.78
2023-09-30T17:11:49.970Z,3.00
2023-09-30T17:14:19.032Z,3.05
2023-09-30T17:16:48.154Z,3.15
2023-09-30T17:19:16.823Z,3.22
2023-09-30T17:21:45.305Z,3.40
2023-09-30T17:24:15.225Z,3.30
2023-09-30T17:26:43.803Z,2.97
2023-09-30T17:29:12.293Z,3.15
2023-09-30T17:31:40.792Z,2.67
2023-09-30T17:34:09.795Z,3.55
2023-09-30T17:36:38.410Z,3.90
2023-09-30T17:39:07.500Z,3.67
2023-09-30T17:41:38.993Z,3.50
2023-09-30T17:44:10.517Z,3.65
2023-09-30T17:46:39.068Z,3.30
2023-09-30T17:49:07.586Z,3.45
2023-09-30T17:51:36.215Z,3.45
2023-09-30T17:54:04.873Z,4.00
2023-09-30T17:56:33.491Z,3.88
2023-09-30T17:59:03.264Z,3.38
2023-09-30T18:01:31.770Z,3.55
2023-09-30T18:04:00.832Z,3.40
2023-09-30T18:06:29.389Z,3.65
2023-09-30T18:08:57.864Z,3.90
2023-09-30T18:11:26.388Z,4.28
2023-09-30T18:13:55.154Z,4.18
2023-09-30T18:16:25.570Z,4.55
2023-09-30T18:18:54.242Z,4.07
2023-09-30T18:21:22.791Z,3.97
2023-09-30T18:23:51.684Z,4.22
2023-09-30T18:26:20.368Z,4.20
2023-09-30T18:28:48.846Z,4.15
2023-09-30T18:31:19.979Z,4.18
2023-09-30T18:33:50.229Z,3.90
2023-09-30T18:36:19.204Z,4.05
2023-09-30T18:38:47.950Z,4.05
2023-09-30T18:41:17.886Z,3.95
2023-09-30T18:43:47.278Z,4.22
2023-09-30T18:46:17.112Z,4.00
2023-09-30T18:48:45.778Z,4.50
2023-09-30T18:51:20.835Z,4.30
2023-09-30T18:53:49.368Z,4.25
2023-09-30T18:56:23.931Z,4.20
2023-09-30T18:58:52.366Z,4.00
2023-09-30T19:01:20.962Z,4.55
2023-09-30T19:03:49.649Z,4.50
2023-09-30T19:06:20.039Z,3.90
2023-09-30T19:08:48.511Z,4.10
2023-09-30T19:15:49.901Z,3.90
2023-09-30T19:18:18.788Z,4.38
2023-09-30T19:20:48.095Z,3.97
2023-09-30T19:23:18.017Z,4.07
2023-09-30T19:25:46.462Z,3.83
2023-09-30T19:28:14.939Z,4.38
2023-09-30T19:30:46.332Z,4.10
2023-09-30T19:33:16.906Z,3.90
2023-09-30T19:35:45.865Z,4.25
2023-09-30T19:38:14.538Z,4.28
2023-09-30T19:40:44.565Z,4.00
2023-09-30T19:43:13.016Z,4.40
2023-09-30T19:45:41.815Z,4.43
2023-09-30T19:48:12.809Z,4.55
2023-09-30T19:50:41.591Z,4.05
2023-09-30T19:53:10.385Z,4.20
2023-09-30T19:55:38.834Z,4.50
2023-09-30T19:58:08.805Z,4.82
2023-09-30T20:00:39.319Z,4.40
2023-09-30T20:03:08.270Z,4.72
2023-09-30T20:05:37.816Z,4.00
2023-09-30T20:08:06.619Z,4.93
2023-09-30T20:10:35.399Z,5.03
2023-09-30T20:13:08.915Z,4.63
2023-09-30T20:15:39.540Z,4.45
2023-09-30T20:18:08.591Z,4.40
2023-09-30T20:20:37.079Z,4.03
2023-09-30T20:23:07.404Z,4.95
2023-09-30T20:25:35.919Z,4.65
2023-09-30T20:28:06.830Z,4.85
2023-09-30T20:30:36.201Z,5.20
2023-09-30T20:33:06.438Z,4.88
2023-09-30T20:35:36.218Z,5.82
2023-09-30T20:38:05.218Z,4.80
2023-09-30T20:40:33.701Z,5.45
2023-09-30T20:43:02.261Z,5.10
2023-09-30T20:45:30.753Z,5.28
2023-09-30T20:47:59.164Z,4.97
2023-09-30T20:50:28.958Z,4.88
2023-09-30T20:52:59.717Z,4.95
2023-09-30T20:55:28.403Z,4.13
2023-09-30T20:57:58.350Z,5.25
2023-09-30T21:00:26.827Z,4.82
2023-09-30T21:02:55.981Z,5.00
2023-09-30T21:05:24.820Z,4.45
2023-09-30T21:07:54.649Z,4.60
2023-09-30T21:10:23.168Z,4.57
2023-09-30T21:12:51.671Z,4.90
2023-09-30T21:15:20.450Z,4.60
2023-09-30T21:17:48.870Z,4.68
2023-09-30T21:20:17.557Z,4.75
2023-09-30T21:22:46.360Z,4.95
2023-09-30T21:25:16.473Z,4.97
2023-09-30T21:27:44.987Z,3.70
2023-09-30T21:30:14.497Z,4.53
2023-09-30T21:32:43.054Z,4.50
2023-09-30T21:35:12.909Z,4.78
2023-09-30T21:37:41.356Z,4.57
2023-09-30T21:40:11.168Z,4.75
2023-09-30T21:42:41.155Z,4.50
2023-09-30T21:45:11.449Z,4.07
2023-09-30T21:47:39.942Z,4.40
2023-09-30T21:50:10.268Z,4.70
2023-09-30T21:52:38.732Z,4.00
2023-09-30T21:55:08.521Z,4.88
2023-09-30T21:57:37.187Z,4.25
2023-09-30T22:00:12.332Z,4.50
2023-09-30T22:02:41.067Z,4.95
2023-09-30T22:05:11.051Z,4.47
2023-09-30T22:07:41.358Z,4.32
2023-09-30T22:10:10.267Z,4.25
2023-09-30T22:12:38.792Z,4.50
2023-09-30T22:15:09.904Z,4.13
2023-09-30T22:17:39.848Z,4.30
2023-09-30T22:20:11.478Z,4.75
2023-09-30T22:22:40.129Z,4.88
2023-09-30T22:25:10.364Z,4.75
2023-09-30T22:27:40.778Z,4.70
2023-09-30T22:30:12.862Z,4.15
2023-09-30T22:32:41.506Z,4.53
2023-09-30T22:35:10.426Z,4.32
2023-09-30T22:37:39.284Z,4.97
2023-09-30T22:40:09.278Z,4.15
2023-09-30T22:42:37.779Z,4.38
2023-09-30T22:45:07.393Z,4.45
2023-09-30T22:47:46.054Z,4.00
2023-09-30T22:50:14.643Z,3.88
2023-09-30T22:52:44.681Z,4.05
2023-09-30T22:55:14.539Z,4.10
2023-09-30T22:57:43.411Z,4.55
2023-09-30T23:00:13.516Z,4.10
2023-09-30T23:02:42.697Z,4.13
2023-09-30T23:05:13.287Z,4.00
2023-09-30T23:07:45.200Z,3.83
2023-09-30T23:10:17.425Z,3.83
2023-09-30T23:12:46.359Z,4.00
2023-09-30T23:15:17.542Z,3.83
2023-09-30T23:17:47.441Z,4.05
2023-09-30T23:20:24.353Z,4.00
2023-09-30T23:22:55.755Z,3.90
2023-09-30T23:25:28.840Z,3.75
2023-09-30T23:28:02.796Z,4.10
2023-09-30T23:30:33.710Z,4.15
2023-09-30T23:33:06.378Z,4.10
2023-09-30T23:35:38.145Z,3.83
2023-09-30T23:38:08.954Z,4.10
2023-09-30T23:40:38.698Z,4.00
2023-09-30T23:43:08.592Z,3.60
2023-09-30T23:45:38.991Z,4.00
2023-09-30T23:48:09.625Z,3.63
2023-09-30T23:50:41.742Z,3.78
2023-09-30T23:53:10.561Z,3.92
2023-09-30T23:55:39.435Z,3.97
2023-09-30T23:58:11.245Z,3.90
